sensor_id;sensor_type;location;lat;lon;timestamp;P1;durP1;ratioP1;P2;durP2;ratioP2
3847;SDS011;1939;48.720;9.166;2022-12-18T00:00:14;66.67;;;24.87;;
3847;SDS011;1939;48.720;9.166;2022-12-18T00:02:39;65.43;;;25.37;;
3847;SDS011;1939;48.720;9.166;2022-12-18T00:05:06;74.93;;;27.33;;
3847;SDS011;1939;48.720;9.166;2022-12-18T00:07:32;75.60;;;26.07;;
3847;SDS011;1939;48.720;9.166;2022-12-18T00:09:57;58.83;;;26.10;;
3847;SDS011;1939;48.720;9.166;2022-12-18T00:12:22;62.67;;;27.40;;
3847;SDS011;1939;48.720;9.166;2022-12-18T00:14:47;75.10;;;24.63;;
3847;SDS011;1939;48.720;9.166;2022-12-18T00:17:13;56.73;;;22.10;;
3847;SDS011;1939;48.720;9.166;2022-12-18T00:19:38;68.83;;;25.17;;
3847;SDS011;1939;48.720;9.166;2022-12-18T00:22:03;53.77;;;20.90;;
3847;SDS011;1939;48.720;9.166;2022-12-18T00:24:28;55.37;;;23.43;;
3847;SDS011;1939;48.720;9.166;2022-12-18T00:26:53;67.03;;;25.60;;
3847;SDS011;1939;48.720;9.166;2022-12-18T00:29:19;56.57;;;22.17;;
3847;SDS011;1939;48.720;9.166;2022-12-18T00:31:44;55.27;;;21.57;;
3847;SDS011;1939;48.720;9.166;2022-12-18T00:34:10;63.47;;;22.13;;
3847;SDS011;1939;48.720;9.166;2022-12-18T00:36:35;52.07;;;21.10;;
3847;SDS011;1939;48.720;9.166;2022-12-18T00:39:02;56.77;;;21.87;;
3847;SDS011;1939;48.720;9.166;2022-12-18T00:41:28;55.47;;;23.10;;
3847;SDS011;1939;48.720;9.166;2022-12-18T00:44:13;54.00;;;22.60;;
3847;SDS011;1939;48.720;9.166;2022-12-18T00:46:38;59.07;;;22.53;;
3847;SDS011;1939;48.720;9.166;2022-12-18T00:49:04;50.77;;;20.53;;
3847;SDS011;1939;48.720;9.166;2022-12-18T00:51:29;52.93;;;20.00;;
3847;SDS011;1939;48.720;9.166;2022-12-18T00:53:54;56.03;;;21.63;;
3847;SDS011;1939;48.720;9.166;2022-12-18T00:56:19;55.43;;;20.47;;
3847;SDS011;1939;48.720;9.166;2022-12-18T00:58:45;56.97;;;21.93;;
3847;SDS011;1939;48.720;9.166;2022-12-18T01:01:10;42.97;;;21.07;;
3847;SDS011;1939;48.720;9.166;2022-12-18T01:03:35;57.43;;;22.20;;
3847;SDS011;1939;48.720;9.166;2022-12-18T01:06:05;57.80;;;21.67;;
3847;SDS011;1939;48.720;9.166;2022-12-18T01:08:30;63.50;;;21.10;;
3847;SDS011;1939;48.720;9.166;2022-12-18T01:10:55;65.73;;;23.63;;
3847;SDS011;1939;48.720;9.166;2022-12-18T01:13:21;62.20;;;25.70;;
3847;SDS011;1939;48.720;9.166;2022-12-18T01:15:49;64.83;;;22.70;;
3847;SDS011;1939;48.720;9.166;2022-12-18T01:18:14;59.70;;;24.83;;
3847;SDS011;1939;48.720;9.166;2022-12-18T01:20:39;70.73;;;23.50;;
3847;SDS011;1939;48.720;9.166;2022-12-18T01:23:05;78.27;;;23.97;;
3847;SDS011;1939;48.720;9.166;2022-12-18T01:25:30;61.70;;;22.97;;
3847;SDS011;1939;48.720;9.166;2022-12-18T01:27:55;126.73;;;30.60;;
3847;SDS011;1939;48.720;9.166;2022-12-18T01:30:20;109.93;;;25.43;;
3847;SDS011;1939;48.720;9.166;2022-12-18T01:32:45;61.03;;;22.70;;
3847;SDS011;1939;48.720;9.166;2022-12-18T01:35:11;58.27;;;24.10;;
3847;SDS011;1939;48.720;9.166;2022-12-18T01:37:36;60.03;;;25.70;;
3847;SDS011;1939;48.720;9.166;2022-12-18T01:40:01;54.50;;;21.13;;
3847;SDS011;1939;48.720;9.166;2022-12-18T01:42:26;51.97;;;21.43;;
3847;SDS011;1939;48.720;9.166;2022-12-18T01:44:57;73.27;;;20.97;;
3847;SDS011;1939;48.720;9.166;2022-12-18T01:49:50;45.37;;;17.57;;
3847;SDS011;1939;48.720;9.166;2022-12-18T01:52:16;59.30;;;21.53;;
3847;SDS011;1939;48.720;9.166;2022-12-18T01:54:42;68.43;;;22.53;;
3847;SDS011;1939;48.720;9.166;2022-12-18T01:57:07;60.83;;;20.70;;
3847;SDS011;1939;48.720;9.166;2022-12-18T01:59:33;49.97;;;19.30;;
3847;SDS011;1939;48.720;9.166;2022-12-18T02:01:58;47.47;;;20.13;;
3847;SDS011;1939;48.720;9.166;2022-12-18T02:04:25;53.40;;;19.90;;
3847;SDS011;1939;48.720;9.166;2022-12-18T02:06:54;51.30;;;20.20;;
3847;SDS011;1939;48.720;9.166;2022-12-18T02:09:33;49.50;;;21.73;;
3847;SDS011;1939;48.720;9.166;2022-12-18T02:14:30;37.40;;;17.47;;
3847;SDS011;1939;48.720;9.166;2022-12-18T02:17:01;42.47;;;20.90;;
3847;SDS011;1939;48.720;9.166;2022-12-18T02:27:20;38.80;;;16.70;;
3847;SDS011;1939;48.720;9.166;2022-12-18T02:29:51;44.47;;;18.10;;
3847;SDS011;1939;48.720;9.166;2022-12-18T02:32:20;62.40;;;19.93;;
3847;SDS011;1939;48.720;9.166;2022-12-18T02:34:46;47.70;;;18.90;;
3847;SDS011;1939;48.720;9.166;2022-12-18T02:37:14;47.33;;;19.83;;
3847;SDS011;1939;48.720;9.166;2022-12-18T02:39:40;40.10;;;19.93;;
3847;SDS011;1939;48.720;9.166;2022-12-18T02:42:06;48.07;;;17.37;;
3847;SDS011;1939;48.720;9.166;2022-12-18T02:44:54;43.80;;;16.90;;
3847;SDS011;1939;48.720;9.166;2022-12-18T02:47:19;52.20;;;18.80;;
3847;SDS011;1939;48.720;9.166;2022-12-18T02:52:18;47.50;;;18.23;;
3847;SDS011;1939;48.720;9.166;2022-12-18T02:59:56;40.37;;;16.43;;
3847;SDS011;1939;48.720;9.166;2022-12-18T03:02:25;44.00;;;19.07;;
3847;SDS011;1939;48.720;9.166;2022-12-18T03:04:58;38.67;;;17.13;;
3847;SDS011;1939;48.720;9.166;2022-12-18T03:07:34;39.97;;;17.47;;
3847;SDS011;1939;48.720;9.166;2022-12-18T03:10:01;42.10;;;16.30;;
3847;SDS011;1939;48.720;9.166;2022-12-18T03:12:34;37.77;;;18.00;;
3847;SDS011;1939;48.720;9.166;2022-12-18T03:15:02;33.20;;;16.80;;
3847;SDS011;1939;48.720;9.166;2022-12-18T03:17:28;45.50;;;18.03;;
3847;SDS011;1939;48.720;9.166;2022-12-18T03:19:56;50.17;;;18.60;;
3847;SDS011;1939;48.720;9.166;2022-12-18T03:22:22;41.40;;;16.93;;
3847;SDS011;1939;48.720;9.166;2022-12-18T03:24:48;48.93;;;19.50;;
3847;SDS011;1939;48.720;9.166;2022-12-18T03:27:14;57.70;;;20.30;;
3847;SDS011;1939;48.720;9.166;2022-12-18T03:29:42;59.27;;;18.80;;
3847;SDS011;1939;48.720;9.166;2022-12-18T03:32:10;46.17;;;17.87;;
3847;SDS011;1939;48.720;9.166;2022-12-18T03:34:37;41.63;;;20.77;;
3847;SDS011;1939;48.720;9.166;2022-12-18T03:37:04;48.50;;;18.73;;
3847;SDS011;1939;48.720;9.166;2022-12-18T03:39:29;44.77;;;17.77;;
3847;SDS011;1939;48.720;9.166;2022-12-18T03:49:26;42.03;;;18.53;;
3847;SDS011;1939;48.720;9.166;2022-12-18T03:52:00;47.07;;;19.23;;
3847;SDS011;1939;48.720;9.166;2022-12-18T03:54:26;48.03;;;18.40;;
3847;SDS011;1939;48.720;9.166;2022-12-18T03:56:55;41.37;;;17.53;;
3847;SDS011;1939;48.720;9.166;2022-12-18T03:59:21;51.30;;;19.30;;
3847;SDS011;1939;48.720;9.166;2022-12-18T04:01:49;38.50;;;16.03;;
3847;SDS011;1939;48.720;9.166;2022-12-18T04:04:15;41.90;;;19.00;;
3847;SDS011;1939;48.720;9.166;2022-12-18T04:06:41;49.77;;;17.23;;
3847;SDS011;1939;48.720;9.166;2022-12-18T04:09:06;42.50;;;15.70;;
3847;SDS011;1939;48.720;9.166;2022-12-18T04:11:32;52.13;;;20.43;;
3847;SDS011;1939;48.720;9.166;2022-12-18T04:13:57;41.40;;;18.77;;
3847;SDS011;1939;48.720;9.166;2022-12-18T04:16:23;44.70;;;17.63;;
3847;SDS011;1939;48.720;9.166;2022-12-18T04:18:48;43.07;;;17.47;;
3847;SDS011;1939;48.720;9.166;2022-12-18T04:21:13;57.70;;;18.87;;
3847;SDS011;1939;48.720;9.166;2022-12-18T04:23:38;52.30;;;18.83;;
3847;SDS011;1939;48.720;9.166;2022-12-18T04:26:03;41.53;;;16.27;;
3847;SDS011;1939;48.720;9.166;2022-12-18T04:28:29;50.07;;;18.63;;
3847;SDS011;1939;48.720;9.166;2022-12-18T04:30:54;47.77;;;17.63;;
3847;SDS011;1939;48.720;9.166;2022-12-18T04:33:19;38.23;;;16.90;;
3847;SDS011;1939;48.720;9.166;2022-12-18T04:35:44;42.40;;;18.60;;
3847;SDS011;1939;48.720;9.166;2022-12-18T04:38:10;49.53;;;19.93;;
3847;SDS011;1939;48.720;9.166;2022-12-18T04:40:36;40.87;;;19.27;;
3847;SDS011;1939;48.720;9.166;2022-12-18T04:43:01;44.70;;;16.37;;
3847;SDS011;1939;48.720;9.166;2022-12-18T04:45:26;50.10;;;19.00;;
3847;SDS011;1939;48.720;9.166;2022-12-18T04:47:52;45.23;;;17.33;;
3847;SDS011;1939;48.720;9.166;2022-12-18T04:50:17;46.50;;;17.80;;
3847;SDS011;1939;48.720;9.166;2022-12-18T04:52:42;37.03;;;16.73;;
3847;SDS011;1939;48.720;9.166;2022-12-18T04:55:07;48.17;;;18.03;;
3847;SDS011;1939;48.720;9.166;2022-12-18T04:57:32;41.77;;;17.10;;
3847;SDS011;1939;48.720;9.166;2022-12-18T04:59:58;44.77;;;18.40;;
3847;SDS011;1939;48.720;9.166;2022-12-18T05:02:23;48.30;;;17.83;;
3847;SDS011;1939;48.720;9.166;2022-12-18T05:04:48;38.37;;;17.03;;
3847;SDS011;1939;48.720;9.166;2022-12-18T05:07:13;55.80;;;20.03;;
3847;SDS011;1939;48.720;9.166;2022-12-18T05:09:39;47.00;;;17.60;;
3847;SDS011;1939;48.720;9.166;2022-12-18T05:12:04;40.70;;;16.47;;
3847;SDS011;1939;48.720;9.166;2022-12-18T05:14:29;40.50;;;18.10;;
3847;SDS011;1939;48.720;9.166;2022-12-18T05:16:54;41.47;;;18.77;;
3847;SDS011;1939;48.720;9.166;2022-12-18T05:19:19;47.73;;;17.90;;
3847;SDS011;1939;48.720;9.166;2022-12-18T05:21:45;43.70;;;17.47;;
3847;SDS011;1939;48.720;9.166;2022-12-18T05:24:10;52.67;;;20.70;;
3847;SDS011;1939;48.720;9.166;2022-12-18T05:26:35;42.00;;;18.80;;
3847;SDS011;1939;48.720;9.166;2022-12-18T05:29:00;47.03;;;20.40;;
3847;SDS011;1939;48.720;9.166;2022-12-18T05:31:26;48.40;;;19.97;;
3847;SDS011;1939;48.720;9.166;2022-12-18T05:33:51;45.07;;;20.17;;
3847;SDS011;1939;48.720;9.166;2022-12-18T05:36:16;46.97;;;19.90;;
3847;SDS011;1939;48.720;9.166;2022-12-18T05:38:41;46.47;;;17.20;;
3847;SDS011;1939;48.720;9.166;2022-12-18T05:41:07;36.70;;;16.93;;
3847;SDS011;1939;48.720;9.166;2022-12-18T05:43:33;34.97;;;16.80;;
3847;SDS011;1939;48.720;9.166;2022-12-18T05:46:02;55.13;;;20.20;;
3847;SDS011;1939;48.720;9.166;2022-12-18T05:48:27;43.27;;;17.57;;
3847;SDS011;1939;48.720;9.166;2022-12-18T05:50:53;49.03;;;19.00;;
3847;SDS011;1939;48.720;9.166;2022-12-18T05:53:19;43.43;;;20.30;;
3847;SDS011;1939;48.720;9.166;2022-12-18T05:55:45;49.70;;;20.50;;
3847;SDS011;1939;48.720;9.166;2022-12-18T05:58:10;51.20;;;20.33;;
3847;SDS011;1939;48.720;9.166;2022-12-18T06:00:37;54.40;;;17.70;;
3847;SDS011;1939;48.720;9.166;2022-12-18T06:03:05;34.73;;;15.90;;
3847;SDS011;1939;48.720;9.166;2022-12-18T06:05:34;34.40;;;16.37;;
3847;SDS011;1939;48.720;9.166;2022-12-18T06:07:59;37.53;;;15.77;;
3847;SDS011;1939;48.720;9.166;2022-12-18T06:10:24;35.67;;;16.47;;
3847;SDS011;1939;48.720;9.166;2022-12-18T06:12:49;39.10;;;14.83;;
3847;SDS011;1939;48.720;9.166;2022-12-18T06:15:15;34.73;;;16.73;;
3847;SDS011;1939;48.720;9.166;2022-12-18T06:17:40;35.93;;;15.07;;
3847;SDS011;1939;48.720;9.166;2022-12-18T06:20:05;48.17;;;18.20;;
3847;SDS011;1939;48.720;9.166;2022-12-18T06:22:31;29.93;;;14.20;;
3847;SDS011;1939;48.720;9.166;2022-12-18T06:24:57;41.03;;;16.40;;
3847;SDS011;1939;48.720;9.166;2022-12-18T06:27:22;31.90;;;14.97;;
3847;SDS011;1939;48.720;9.166;2022-12-18T06:29:47;32.03;;;14.03;;
3847;SDS011;1939;48.720;9.166;2022-12-18T06:32:12;32.90;;;17.60;;
3847;SDS011;1939;48.720;9.166;2022-12-18T06:34:38;44.53;;;16.87;;
3847;SDS011;1939;48.720;9.166;2022-12-18T06:37:03;36.23;;;15.27;;
3847;SDS011;1939;48.720;9.166;2022-12-18T06:39:28;36.13;;;14.87;;
3847;SDS011;1939;48.720;9.166;2022-12-18T06:41:53;31.63;;;14.00;;
3847;SDS011;1939;48.720;9.166;2022-12-18T06:44:18;58.03;;;16.23;;
3847;SDS011;1939;48.720;9.166;2022-12-18T06:46:44;42.47;;;15.90;;
3847;SDS011;1939;48.720;9.166;2022-12-18T06:49:09;43.43;;;17.90;;
3847;SDS011;1939;48.720;9.166;2022-12-18T06:51:35;34.00;;;14.33;;
3847;SDS011;1939;48.720;9.166;2022-12-18T06:54:00;52.27;;;14.00;;
3847;SDS011;1939;48.720;9.166;2022-12-18T06:56:25;43.80;;;18.07;;
3847;SDS011;1939;48.720;9.166;2022-12-18T06:58:50;36.03;;;14.70;;
3847;SDS011;1939;48.720;9.166;2022-12-18T07:01:15;31.93;;;15.03;;
3847;SDS011;1939;48.720;9.166;2022-12-18T07:03:41;36.00;;;15.40;;
3847;SDS011;1939;48.720;9.166;2022-12-18T07:06:06;37.30;;;17.60;;
3847;SDS011;1939;48.720;9.166;2022-12-18T07:08:37;30.17;;;13.73;;
3847;SDS011;1939;48.720;9.166;2022-12-18T07:11:03;37.43;;;15.03;;
3847;SDS011;1939;48.720;9.166;2022-12-18T07:13:28;43.83;;;14.87;;
3847;SDS011;1939;48.720;9.166;2022-12-18T07:15:53;34.73;;;13.17;;
3847;SDS011;1939;48.720;9.166;2022-12-18T07:18:18;34.70;;;14.57;;
3847;SDS011;1939;48.720;9.166;2022-12-18T07:20:44;39.43;;;17.07;;
3847;SDS011;1939;48.720;9.166;2022-12-18T07:23:09;32.10;;;14.13;;
3847;SDS011;1939;48.720;9.166;2022-12-18T07:25:35;42.27;;;15.27;;
3847;SDS011;1939;48.720;9.166;2022-12-18T07:28:00;48.57;;;16.10;;
3847;SDS011;1939;48.720;9.166;2022-12-18T07:30:25;31.13;;;14.07;;
3847;SDS011;1939;48.720;9.166;2022-12-18T07:32:51;38.33;;;14.60;;
3847;SDS011;1939;48.720;9.166;2022-12-18T07:35:16;30.20;;;15.93;;
3847;SDS011;1939;48.720;9.166;2022-12-18T07:37:41;41.40;;;15.90;;
3847;SDS011;1939;48.720;9.166;2022-12-18T07:40:07;39.30;;;15.97;;
3847;SDS011;1939;48.720;9.166;2022-12-18T07:42:32;42.87;;;16.50;;
3847;SDS011;1939;48.720;9.166;2022-12-18T07:44:58;39.90;;;18.40;;
3847;SDS011;1939;48.720;9.166;2022-12-18T07:47:24;41.27;;;15.70;;
3847;SDS011;1939;48.720;9.166;2022-12-18T07:49:49;38.67;;;17.00;;
3847;SDS011;1939;48.720;9.166;2022-12-18T07:52:15;44.97;;;20.90;;
3847;SDS011;1939;48.720;9.166;2022-12-18T07:54:40;37.67;;;17.17;;
3847;SDS011;1939;48.720;9.166;2022-12-18T07:57:05;46.20;;;17.63;;
3847;SDS011;1939;48.720;9.166;2022-12-18T07:59:30;43.90;;;16.40;;
3847;SDS011;1939;48.720;9.166;2022-12-18T08:01:56;40.10;;;17.27;;
3847;SDS011;1939;48.720;9.166;2022-12-18T08:04:21;43.30;;;18.80;;
3847;SDS011;1939;48.720;9.166;2022-12-18T08:06:46;37.93;;;17.93;;
3847;SDS011;1939;48.720;9.166;2022-12-18T08:09:11;40.20;;;17.50;;
3847;SDS011;1939;48.720;9.166;2022-12-18T08:11:37;39.53;;;19.70;;
3847;SDS011;1939;48.720;9.166;2022-12-18T08:14:02;39.13;;;18.90;;
3847;SDS011;1939;48.720;9.166;2022-12-18T08:16:27;31.57;;;16.00;;
3847;SDS011;1939;48.720;9.166;2022-12-18T08:18:53;37.90;;;16.60;;
3847;SDS011;1939;48.720;9.166;2022-12-18T08:21:19;58.60;;;18.57;;
3847;SDS011;1939;48.720;9.166;2022-12-18T08:23:46;39.67;;;17.90;;
3847;SDS011;1939;48.720;9.166;2022-12-18T08:26:11;40.63;;;17.60;;
3847;SDS011;1939;48.720;9.166;2022-12-18T08:28:37;37.77;;;17.33;;
3847;SDS011;1939;48.720;9.166;2022-12-18T08:31:02;31.43;;;15.27;;
3847;SDS011;1939;48.720;9.166;2022-12-18T08:33:27;36.43;;;16.10;;
3847;SDS011;1939;48.720;9.166;2022-12-18T08:35:52;40.23;;;17.00;;
3847;SDS011;1939;48.720;9.166;2022-12-18T08:38:17;33.43;;;16.50;;
3847;SDS011;1939;48.720;9.166;2022-12-18T08:40:43;36.87;;;17.00;;
3847;SDS011;1939;48.720;9.166;2022-12-18T08:43:09;37.97;;;15.93;;
3847;SDS011;1939;48.720;9.166;2022-12-18T08:45:53;59.47;;;16.77;;
3847;SDS011;1939;48.720;9.166;2022-12-18T08:48:18;41.33;;;17.40;;
3847;SDS011;1939;48.720;9.166;2022-12-18T08:50:48;34.37;;;17.70;;
3847;SDS011;1939;48.720;9.166;2022-12-18T08:53:18;42.70;;;17.57;;
3847;SDS011;1939;48.720;9.166;2022-12-18T08:55:43;39.23;;;16.13;;
3847;SDS011;1939;48.720;9.166;2022-12-18T08:58:08;39.60;;;19.07;;
3847;SDS011;1939;48.720;9.166;2022-12-18T09:00:33;44.53;;;19.20;;
3847;SDS011;1939;48.720;9.166;2022-12-18T09:02:58;43.77;;;18.87;;
3847;SDS011;1939;48.720;9.166;2022-12-18T09:05:23;35.43;;;18.63;;
3847;SDS011;1939;48.720;9.166;2022-12-18T09:07:49;41.23;;;17.70;;
3847;SDS011;1939;48.720;9.166;2022-12-18T09:10:14;46.53;;;19.33;;
3847;SDS011;1939;48.720;9.166;2022-12-18T09:12:39;49.03;;;19.83;;
3847;SDS011;1939;48.720;9.166;2022-12-18T09:15:04;39.10;;;17.93;;
3847;SDS011;1939;48.720;9.166;2022-12-18T09:17:30;42.90;;;20.90;;
3847;SDS011;1939;48.720;9.166;2022-12-18T09:19:55;45.20;;;20.83;;
3847;SDS011;1939;48.720;9.166;2022-12-18T09:22:20;44.33;;;19.73;;
3847;SDS011;1939;48.720;9.166;2022-12-18T09:24:45;57.37;;;23.70;;
3847;SDS011;1939;48.720;9.166;2022-12-18T09:27:10;44.53;;;21.00;;
3847;SDS011;1939;48.720;9.166;2022-12-18T09:29:36;43.47;;;19.70;;
3847;SDS011;1939;48.720;9.166;2022-12-18T09:32:01;45.90;;;20.30;;
3847;SDS011;1939;48.720;9.166;2022-12-18T09:34:26;52.93;;;20.27;;
3847;SDS011;1939;48.720;9.166;2022-12-18T09:36:51;47.33;;;20.70;;
3847;SDS011;1939;48.720;9.166;2022-12-18T09:39:17;46.07;;;20.33;;
3847;SDS011;1939;48.720;9.166;2022-12-18T09:44:18;47.53;;;21.10;;
3847;SDS011;1939;48.720;9.166;2022-12-18T09:46:52;55.87;;;22.00;;
3847;SDS011;1939;48.720;9.166;2022-12-18T09:49:19;43.83;;;19.20;;
3847;SDS011;1939;48.720;9.166;2022-12-18T09:51:49;46.03;;;21.67;;
3847;SDS011;1939;48.720;9.166;2022-12-18T09:54:17;54.80;;;21.90;;
3847;SDS011;1939;48.720;9.166;2022-12-18T09:56:44;65.03;;;24.70;;
3847;SDS011;1939;48.720;9.166;2022-12-18T09:59:53;46.83;;;20.53;;
3847;SDS011;1939;48.720;9.166;2022-12-18T10:01:58;53.60;;;23.53;;
3847;SDS011;1939;48.720;9.166;2022-12-18T10:04:23;62.67;;;24.27;;
3847;SDS011;1939;48.720;9.166;2022-12-18T10:06:59;58.37;;;24.47;;
3847;SDS011;1939;48.720;9.166;2022-12-18T10:09:28;53.10;;;23.33;;
3847;SDS011;1939;48.720;9.166;2022-12-18T10:12:02;47.13;;;22.63;;
3847;SDS011;1939;48.720;9.166;2022-12-18T10:14:35;56.17;;;24.00;;
3847;SDS011;1939;48.720;9.166;2022-12-18T10:19:37;52.13;;;26.00;;
3847;SDS011;1939;48.720;9.166;2022-12-18T10:22:22;48.77;;;24.77;;
3847;SDS011;1939;48.720;9.166;2022-12-18T10:25:02;59.60;;;24.43;;
3847;SDS011;1939;48.720;9.166;2022-12-18T10:27:29;54.60;;;27.27;;
3847;SDS011;1939;48.720;9.166;2022-12-18T10:29:54;48.13;;;24.97;;
3847;SDS011;1939;48.720;9.166;2022-12-18T10:32:21;52.43;;;21.87;;
3847;SDS011;1939;48.720;9.166;2022-12-18T10:34:47;55.13;;;23.90;;
3847;SDS011;1939;48.720;9.166;2022-12-18T10:37:16;52.13;;;24.10;;
3847;SDS011;1939;48.720;9.166;2022-12-18T10:39:42;42.73;;;21.47;;
3847;SDS011;1939;48.720;9.166;2022-12-18T10:42:17;54.50;;;23.57;;
3847;SDS011;1939;48.720;9.166;2022-12-18T10:44:43;51.43;;;22.57;;
3847;SDS011;1939;48.720;9.166;2022-12-18T10:47:11;63.17;;;26.20;;
3847;SDS011;1939;48.720;9.166;2022-12-18T10:49:37;54.27;;;24.30;;
3847;SDS011;1939;48.720;9.166;2022-12-18T10:52:17;56.97;;;24.37;;
3847;SDS011;1939;48.720;9.166;2022-12-18T10:54:50;48.07;;;23.13;;
3847;SDS011;1939;48.720;9.166;2022-12-18T10:57:17;47.20;;;24.17;;
3847;SDS011;1939;48.720;9.166;2022-12-18T10:59:53;54.70;;;24.17;;
3847;SDS011;1939;48.720;9.166;2022-12-18T11:02:33;45.57;;;21.90;;
3847;SDS011;1939;48.720;9.166;2022-12-18T11:04:59;53.00;;;23.57;;
3847;SDS011;1939;48.720;9.166;2022-12-18T11:07:24;57.58;;;24.70;;
3847;SDS011;1939;48.720;9.166;2022-12-18T11:09:59;48.03;;;22.70;;
3847;SDS011;1939;48.720;9.166;2022-12-18T11:12:25;52.00;;;23.33;;
3847;SDS011;1939;48.720;9.166;2022-12-18T11:14:53;51.70;;;23.73;;
3847;SDS011;1939;48.720;9.166;2022-12-18T11:17:32;54.63;;;23.60;;
3847;SDS011;1939;48.720;9.166;2022-12-18T11:20:00;46.00;;;22.37;;
3847;SDS011;1939;48.720;9.166;2022-12-18T11:22:26;53.57;;;23.97;;
3847;SDS011;1939;48.720;9.166;2022-12-18T11:24:54;44.57;;;22.03;;
3847;SDS011;1939;48.720;9.166;2022-12-18T11:27:19;65.77;;;22.00;;
3847;SDS011;1939;48.720;9.166;2022-12-18T11:29:45;47.00;;;21.23;;
3847;SDS011;1939;48.720;9.166;2022-12-18T11:34:58;46.53;;;20.50;;
3847;SDS011;1939;48.720;9.166;2022-12-18T11:37:24;64.10;;;24.77;;
3847;SDS011;1939;48.720;9.166;2022-12-18T11:39:55;60.88;;;25.67;;
3847;SDS011;1939;48.720;9.166;2022-12-18T11:42:24;59.13;;;23.50;;
3847;SDS011;1939;48.720;9.166;2022-12-18T11:44:51;57.13;;;25.07;;
3847;SDS011;1939;48.720;9.166;2022-12-18T11:49:45;55.57;;;24.17;;
3847;SDS011;1939;48.720;9.166;2022-12-18T11:52:17;63.97;;;24.70;;
3847;SDS011;1939;48.720;9.166;2022-12-18T11:54:43;56.13;;;24.00;;
3847;SDS011;1939;48.720;9.166;2022-12-18T11:57:19;50.77;;;21.30;;
3847;SDS011;1939;48.720;9.166;2022-12-18T12:21:49;50.50;;;21.57;;
3847;SDS011;1939;48.720;9.166;2022-12-18T12:23:59;52.00;;;21.57;;
3847;SDS011;1939;48.720;9.166;2022-12-18T12:26:30;41.40;;;17.73;;
3847;SDS011;1939;48.720;9.166;2022-12-18T12:29:16;50.73;;;18.87;;
3847;SDS011;1939;48.720;9.166;2022-12-18T12:34:34;46.67;;;17.17;;
3847;SDS011;1939;48.720;9.166;2022-12-18T12:39:34;44.97;;;18.40;;
3847;SDS011;1939;48.720;9.166;2022-12-18T12:42:00;42.00;;;17.80;;
3847;SDS011;1939;48.720;9.166;2022-12-18T12:44:48;50.60;;;19.47;;
3847;SDS011;1939;48.720;9.166;2022-12-18T12:47:21;38.10;;;17.70;;
3847;SDS011;1939;48.720;9.166;2022-12-18T12:49:48;44.53;;;17.93;;
3847;SDS011;1939;48.720;9.166;2022-12-18T12:52:15;40.03;;;18.13;;
3847;SDS011;1939;48.720;9.166;2022-12-18T12:54:41;43.87;;;17.50;;
3847;SDS011;1939;48.720;9.166;2022-12-18T13:04:57;34.67;;;15.10;;
3847;SDS011;1939;48.720;9.166;2022-12-18T13:07:27;45.53;;;17.40;;
3847;SDS011;1939;48.720;9.166;2022-12-18T13:10:13;37.03;;;16.43;;
3847;SDS011;1939;48.720;9.166;2022-12-18T13:12:56;36.50;;;15.82;;
3847;SDS011;1939;48.720;9.166;2022-12-18T13:20:34;40.17;;;18.50;;
3847;SDS011;1939;48.720;9.166;2022-12-18T13:23:01;37.07;;;16.80;;
3847;SDS011;1939;48.720;9.166;2022-12-18T13:28:11;40.10;;;18.10;;
3847;SDS011;1939;48.720;9.166;2022-12-18T13:38:20;44.20;;;18.30;;
3847;SDS011;1939;48.720;9.166;2022-12-18T13:45:45;37.27;;;17.37;;
3847;SDS011;1939;48.720;9.166;2022-12-18T13:48:16;40.83;;;17.53;;
3847;SDS011;1939;48.720;9.166;2022-12-18T13:50:41;35.67;;;14.77;;
3847;SDS011;1939;48.720;9.166;2022-12-18T13:53:07;46.67;;;19.80;;
3847;SDS011;1939;48.720;9.166;2022-12-18T13:55:43;44.63;;;17.70;;
3847;SDS011;1939;48.720;9.166;2022-12-18T13:58:11;35.73;;;15.83;;
3847;SDS011;1939;48.720;9.166;2022-12-18T14:00:40;46.07;;;16.50;;
3847;SDS011;1939;48.720;9.166;2022-12-18T14:03:15;40.50;;;16.80;;
3847;SDS011;1939;48.720;9.166;2022-12-18T14:05:41;39.67;;;17.07;;
3847;SDS011;1939;48.720;9.166;2022-12-18T14:08:10;36.00;;;16.03;;
3847;SDS011;1939;48.720;9.166;2022-12-18T14:10:39;43.90;;;17.87;;
3847;SDS011;1939;48.720;9.166;2022-12-18T14:13:06;44.97;;;18.37;;
3847;SDS011;1939;48.720;9.166;2022-12-18T14:15:33;40.80;;;18.97;;
3847;SDS011;1939;48.720;9.166;2022-12-18T14:20:39;41.67;;;17.73;;
3847;SDS011;1939;48.720;9.166;2022-12-18T14:23:24;48.27;;;17.27;;
3847;SDS011;1939;48.720;9.166;2022-12-18T14:25:49;50.97;;;19.90;;
3847;SDS011;1939;48.720;9.166;2022-12-18T14:28:14;50.20;;;18.40;;
3847;SDS011;1939;48.720;9.166;2022-12-18T14:30:41;41.77;;;17.83;;
3847;SDS011;1939;48.720;9.166;2022-12-18T14:33:13;48.73;;;20.53;;
3847;SDS011;1939;48.720;9.166;2022-12-18T14:40:36;45.03;;;17.00;;
3847;SDS011;1939;48.720;9.166;2022-12-18T14:43:01;51.40;;;19.13;;
3847;SDS011;1939;48.720;9.166;2022-12-18T14:48:00;52.83;;;19.53;;
3847;SDS011;1939;48.720;9.166;2022-12-18T14:50:25;55.25;;;22.52;;
3847;SDS011;1939;48.720;9.166;2022-12-18T14:52:51;47.87;;;20.30;;
3847;SDS011;1939;48.720;9.166;2022-12-18T14:55:17;51.33;;;20.83;;
3847;SDS011;1939;48.720;9.166;2022-12-18T14:57:42;57.00;;;23.00;;
3847;SDS011;1939;48.720;9.166;2022-12-18T15:00:15;39.20;;;18.33;;
3847;SDS011;1939;48.720;9.166;2022-12-18T15:02:41;47.70;;;21.70;;
3847;SDS011;1939;48.720;9.166;2022-12-18T15:07:42;58.20;;;22.80;;
3847;SDS011;1939;48.720;9.166;2022-12-18T15:12:33;49.03;;;22.63;;
3847;SDS011;1939;48.720;9.166;2022-12-18T15:14:59;65.13;;;25.85;;
3847;SDS011;1939;48.720;9.166;2022-12-18T15:17:24;64.93;;;27.40;;
3847;SDS011;1939;48.720;9.166;2022-12-18T15:19:50;55.80;;;20.97;;
3847;SDS011;1939;48.720;9.166;2022-12-18T15:22:29;106.67;;;23.27;;
3847;SDS011;1939;48.720;9.166;2022-12-18T15:24:55;53.83;;;22.80;;
3847;SDS011;1939;48.720;9.166;2022-12-18T15:27:22;53.53;;;20.23;;
3847;SDS011;1939;48.720;9.166;2022-12-18T15:30:01;117.60;;;42.00;;
3847;SDS011;1939;48.720;9.166;2022-12-18T15:32:26;65.38;;;26.42;;
3847;SDS011;1939;48.720;9.166;2022-12-18T15:35:01;60.63;;;24.67;;
3847;SDS011;1939;48.720;9.166;2022-12-18T15:37:26;69.90;;;25.27;;
3847;SDS011;1939;48.720;9.166;2022-12-18T15:39:52;69.83;;;23.60;;
3847;SDS011;1939;48.720;9.166;2022-12-18T15:42:17;65.83;;;22.17;;
3847;SDS011;1939;48.720;9.166;2022-12-18T15:45:01;68.88;;;31.88;;
3847;SDS011;1939;48.720;9.166;2022-12-18T15:47:26;49.47;;;22.93;;
3847;SDS011;1939;48.720;9.166;2022-12-18T15:49:51;66.57;;;24.13;;
3847;SDS011;1939;48.720;9.166;2022-12-18T15:52:16;74.90;;;30.50;;
3847;SDS011;1939;48.720;9.166;2022-12-18T15:54:50;67.97;;;31.48;;
3847;SDS011;1939;48.720;9.166;2022-12-18T15:57:34;66.90;;;27.53;;
3847;SDS011;1939;48.720;9.166;2022-12-18T15:59:59;59.07;;;25.03;;
3847;SDS011;1939;48.720;9.166;2022-12-18T16:02:25;68.53;;;30.77;;
3847;SDS011;1939;48.720;9.166;2022-12-18T16:04:51;64.00;;;26.80;;
3847;SDS011;1939;48.720;9.166;2022-12-18T16:07:17;72.67;;;27.73;;
3847;SDS011;1939;48.720;9.166;2022-12-18T16:09:42;72.40;;;26.53;;
3847;SDS011;1939;48.720;9.166;2022-12-18T16:12:19;64.33;;;28.07;;
3847;SDS011;1939;48.720;9.166;2022-12-18T16:14:45;64.50;;;28.97;;
3847;SDS011;1939;48.720;9.166;2022-12-18T16:17:11;66.23;;;25.30;;
3847;SDS011;1939;48.720;9.166;2022-12-18T16:19:37;79.30;;;29.67;;
3847;SDS011;1939;48.720;9.166;2022-12-18T16:22:02;71.07;;;28.00;;
3847;SDS011;1939;48.720;9.166;2022-12-18T16:24:28;71.33;;;28.80;;
3847;SDS011;1939;48.720;9.166;2022-12-18T16:26:56;63.03;;;26.63;;
3847;SDS011;1939;48.720;9.166;2022-12-18T16:29:21;67.17;;;28.10;;
3847;SDS011;1939;48.720;9.166;2022-12-18T16:31:49;61.87;;;25.30;;
3847;SDS011;1939;48.720;9.166;2022-12-18T16:34:19;60.53;;;25.37;;
3847;SDS011;1939;48.720;9.166;2022-12-18T16:36:47;57.53;;;25.00;;